Time;durP1;ratioP1;P1;durP2;ratioP2;P2;SDS_P1;SDS_P2;PMS_P1;PMS_P2;Temp;Humidity;BMP_temperature;BMP_pressure;BME280_temperature;BME280_humidity;BME280_pressure;Samples;Min_cycle;Max_cycle;Signal;HPM_P1;HPM_P2
2022/11/18 00:02:21;;;;;;;;;;;;;;;7.13;100;99489.91;;;;-75
2022/11/18 00:07:21;;;;;;;;;;;;;;;7.1;100;99499.31;;;;-76
2022/11/18 00:08:10;;;;;;;5.9;2.1;;;;;;;;;;;;;-76
2022/11/18 00:17:21;;;;;;;;;;;;;;;7.08;100;99517.44;;;;-76
2022/11/18 00:22:22;;;;;;;;;;;;;;;7.04;100;99526.91;;;;-77
2022/11/18 00:27:21;;;;;;;;;;;;;;;7.02;100;99528.33;;;;-77
2022/11/18 00:32:21;;;;;;;;;;;;;;;7.01;100;99532.47;;;;-76
2022/11/18 00:37:21;;;;;;;;;;;;;;;6.99;100;99537.17;;;;-77
2022/11/18 00:38:11;;;;;;;4.6;2;;;;;;;;;;;;;-76
2022/11/18 00:47:21;;;;;;;;;;;;;;;6.94;100;99552.81;;;;-77
2022/11/18 00:52:21;;;;;;;;;;;;;;;6.92;100;99555.88;;;;-77
2022/11/18 00:57:21;;;;;;;;;;;;;;;6.89;100;99563.8;;;;-76
2022/11/18 01:02:21;;;;;;;;;;;;;;;6.88;100;99571.67;;;;-76
2022/11/18 01:07:21;;;;;;;;;;;;;;;6.85;100;99568.23;;;;-76
2022/11/18 01:08:13;;;;;;;4.4;2.4;;;;;;;;;;;;;-77
2022/11/18 01:17:21;;;;;;;;;;;;;;;6.84;100;99586.81;;;;-75
2022/11/18 01:22:21;;;;;;;;;;;;;;;6.78;100;99584.8;;;;-76
2022/11/18 01:27:21;;;;;;;;;;;;;;;6.77;100;99591.36;;;;-76
2022/11/18 01:32:21;;;;;;;;;;;;;;;6.74;100;99599.44;;;;-76
2022/11/18 01:37:21;;;;;;;;;;;;;;;6.71;100;99611.12;;;;-76
2022/11/18 01:38:13;;;;;;;5.9;2.2;;;;;;;;;;;;;-76
2022/11/18 01:42:21;;;;;;;;;;;;;;;6.69;100;99615.03;;;;-76
2022/11/18 01:47:22;;;;;;;;;;;;;;;6.64;100;99625.07;;;;-76
2022/11/18 01:52:21;;;;;;;;;;;;;;;6.62;100;99638.85;;;;-77
2022/11/18 01:57:26;;;;;;;;;;;;;;;6.56;100;99638;;;;-76
2022/11/18 02:02:23;;;;;;;;;;;;;;;6.57;100;99643.32;;;;-75
2022/11/18 02:07:21;;;;;;;;;;;;;;;6.54;100;99645.68;;;;-77
2022/11/18 02:08:12;;;;;;;5.4;2.1;;;;;;;;;;;;;-77
2022/11/18 02:12:22;;;;;;;;;;;;;;;6.52;100;99655.3;;;;-77
2022/11/18 02:17:27;;;;;;;;;;;;;;;6.51;100;99659.52;;;;-76
2022/11/18 02:22:31;;;;;;;;;;;;;;;6.5;100;99662.31;;;;-77
2022/11/18 02:27:33;;;;;;;;;;;;;;;6.48;100;99670.31;;;;-76
2022/11/18 02:32:24;;;;;;;;;;;;;;;6.45;100;99676.25;;;;-76
2022/11/18 02:37:25;;;;;;;;;;;;;;;6.46;100;99673.2;;;;-75
2022/11/18 02:38:14;;;;;;;4.5;2.2;;;;;;;;;;;;;-77
2022/11/18 02:42:22;;;;;;;;;;;;;;;6.44;100;99677.82;;;;-75
2022/11/18 02:47:23;;;;;;;;;;;;;;;6.43;100;99676.97;;;;-76
2022/11/18 02:52:24;;;;;;;;;;;;;;;6.42;100;99685.49;;;;-76
2022/11/18 02:57:22;;;;;;;;;;;;;;;6.4;100;99690.7;;;;-75
2022/11/18 03:02:22;;;;;;;;;;;;;;;6.39;100;99693.89;;;;-78
2022/11/18 03:07:25;;;;;;;;;;;;;;;6.39;100;99692.77;;;;-75
2022/11/18 03:08:16;;;;;;;6.8;2.6;;;;;;;;;;;;;-76
2022/11/18 03:12:25;;;;;;;;;;;;;;;6.37;100;99702.15;;;;-76
2022/11/18 03:17:24;;;;;;;;;;;;;;;6.36;100;99709.27;;;;-75
2022/11/18 03:22:26;;;;;;;;;;;;;;;6.33;100;99709.59;;;;-76
2022/11/18 03:27:24;;;;;;;;;;;;;;;6.33;100;99719.42;;;;-76
2022/11/18 03:32:25;;;;;;;;;;;;;;;6.32;100;99726.44;;;;-76
2022/11/18 03:37:23;;;;;;;;;;;;;;;6.28;100;99721.35;;;;-76
2022/11/18 03:38:16;;;;;;;6;2.7;;;;;;;;;;;;;-75
2022/11/18 03:42:26;;;;;;;;;;;;;;;6.27;100;99728.03;;;;-76
2022/11/18 03:47:25;;;;;;;;;;;;;;;6.26;100;99735.14;;;;-74
2022/11/18 03:52:23;;;;;;;;;;;;;;;6.24;100;99737.08;;;;-75
2022/11/18 03:57:23;;;;;;;;;;;;;;;6.24;100;99738.72;;;;-76
2022/11/18 04:02:23;;;;;;;;;;;;;;;6.23;100;99741.04;;;;-75
2022/11/18 04:07:26;;;;;;;;;;;;;;;6.24;100;99750.48;;;;-76
2022/11/18 04:08:20;;;;;;;6.1;2.9;;;;;;;;;;;;;-76
2022/11/18 04:12:23;;;;;;;;;;;;;;;6.19;100;99761.72;;;;-75
2022/11/18 04:17:23;;;;;;;;;;;;;;;6.17;100;99761.98;;;;-78
2022/11/18 04:22:21;;;;;;;;;;;;;;;6.17;100;99767.09;;;;-76
2022/11/18 04:27:21;;;;;;;;;;;;;;;6.15;100;99776.23;;;;-77
2022/11/18 04:32:21;;;;;;;;;;;;;;;6.14;100;99787.17;;;;-76
2022/11/18 04:37:21;;;;;;;;;;;;;;;6.14;100;99794.88;;;;-76
2022/11/18 04:38:14;;;;;;;7.2;3.5;;;;;;;;;;;;;-75
2022/11/18 04:42:21;;;;;;;;;;;;;;;6.1;100;99799.16;;;;-76
2022/11/18 04:47:21;;;;;;;;;;;;;;;6.09;100;99804;;;;-75
2022/11/18 04:52:21;;;;;;;;;;;;;;;6.08;100;99808.19;;;;-76
2022/11/18 04:57:21;;;;;;;;;;;;;;;6.07;100;99816.8;;;;-76
2022/11/18 05:02:21;;;;;;;;;;;;;;;6.09;100;99821.95;;;;-75
2022/11/18 05:07:21;;;;;;;;;;;;;;;6.05;100;99823.48;;;;-76
2022/11/18 05:08:15;;;;;;;5.9;3.1;;;;;;;;;;;;;-76
2022/11/18 05:17:21;;;;;;;;;;;;;;;6.03;100;99834.72;;;;-77
2022/11/18 05:22:21;;;;;;;;;;;;;;;6.01;100;99840.83;;;;-76
2022/11/18 05:27:21;;;;;;;;;;;;;;;6;100;99848.86;;;;-76
2022/11/18 05:32:21;;;;;;;;;;;;;;;5.99;100;99855.44;;;;-76
2022/11/18 05:37:21;;;;;;;;;;;;;;;6;100;99860.59;;;;-76
2022/11/18 05:38:16;;;;;;;7.5;3.6;;;;;;;;;;;;;-76
2022/11/18 05:47:23;;;;;;;;;;;;;;;5.96;100;99872.89;;;;-76
2022/11/18 05:52:21;;;;;;;;;;;;;;;5.95;100;99884.61;;;;-77
2022/11/18 05:57:21;;;;;;;;;;;;;;;5.95;100;99881.8;;;;-76
2022/11/18 06:02:24;;;;;;;;;;;;;;;5.97;100;99881.61;;;;-77
2022/11/18 06:07:23;;;;;;;;;;;;;;;6.02;100;99884.25;;;;-76
2022/11/18 06:08:17;;;;;;;6.6;3.4;;;;;;;;;;;;;-76
2022/11/18 06:12:24;;;;;;;;;;;;;;;6.09;100;99891.27;;;;-76
2022/11/18 06:17:24;;;;;;;;;;;;;;;6.11;100;99899.73;;;;-77
2022/11/18 06:22:21;;;;;;;;;;;;;;;6.15;100;99903.66;;;;-76
2022/11/18 06:27:22;;;;;;;;;;;;;;;6.19;100;99909.17;;;;-76
2022/11/18 06:32:21;;;;;;;;;;;;;;;6.24;100;99919.13;;;;-76
2022/11/18 06:37:23;;;;;;;;;;;;;;;6.28;100;99920.36;;;;-76
2022/11/18 06:38:16;;;;;;;7.9;3.9;;;;;;;;;;;;;-76
2022/11/18 06:47:21;;;;;;;;;;;;;;;6.39;100;99948.21;;;;-76
2022/11/18 06:52:21;;;;;;;;;;;;;;;6.45;100;99953.31;;;;-76
2022/11/18 06:57:21;;;;;;;;;;;;;;;6.47;100;99961.09;;;;-76
2022/11/18 07:02:21;;;;;;;;;;;;;;;6.53;100;99964.2;;;;-76
2022/11/18 07:07:21;;;;;;;;;;;;;;;6.56;100;99977.83;;;;-77
2022/11/18 07:08:16;;;;;;;7.4;3.8;;;;;;;;;;;;;-74
2022/11/18 07:12:21;;;;;;;;;;;;;;;6.61;100;99987.03;;;;-77
2022/11/18 07:17:21;;;;;;;;;;;;;;;6.68;100;99996.51;;;;-76
2022/11/18 07:22:21;;;;;;;;;;;;;;;6.69;100;100003.7;;;;-75
2022/11/18 07:27:21;;;;;;;;;;;;;;;6.74;100;100011.1;;;;-75
2022/11/18 07:32:23;;;;;;;;;;;;;;;6.76;100;100018.4;;;;-76
2022/11/18 07:37:21;;;;;;;;;;;;;;;6.82;100;100020.8;;;;-76
2022/11/18 07:38:17;;;;;;;8.4;3.7;;;;;;;;;;;;;-76
2022/11/18 07:42:21;;;;;;;;;;;;;;;6.84;100;100029.6;;;;-76
2022/11/18 07:47:21;;;;;;;;;;;;;;;6.91;100;100038.5;;;;-76
2022/11/18 07:52:21;;;;;;;;;;;;;;;6.92;100;100052.3;;;;-78
2022/11/18 07:57:23;;;;;;;;;;;;;;;6.95;100;100058;;;;-75
2022/11/18 08:02:21;;;;;;;;;;;;;;;6.98;100;100062.1;;;;-76
2022/11/18 08:07:22;;;;;;;;;;;;;;;7.01;100;100071.7;;;;-76
2022/11/18 08:08:18;;;;;;;6.6;3.6;;;;;;;;;;;;;-75
2022/11/18 08:12:22;;;;;;;;;;;;;;;7.03;100;100072.1;;;;-75
2022/11/18 08:17:21;;;;;;;;;;;;;;;7.07;100;100083.1;;;;-76
2022/11/18 08:22:21;;;;;;;;;;;;;;;7.1;100;100085.8;;;;-76
2022/11/18 08:27:21;;;;;;;;;;;;;;;7.12;100;100083.4;;;;-75
2022/11/18 08:32:21;;;;;;;;;;;;;;;7.16;100;100093.6;;;;-76
2022/11/18 08:37:24;;;;;;;;;;;;;;;7.2;100;100103.4;;;;-77
2022/11/18 08:38:18;;;;;;;7.9;3.4;;;;;;;;;;;;;-77
2022/11/18 08:42:21;;;;;;;;;;;;;;;7.2;100;100108.8;;;;-76
2022/11/18 08:47:21;;;;;;;;;;;;;;;7.22;100;100104;;;;-76
2022/11/18 08:52:21;;;;;;;;;;;;;;;7.25;100;100109;;;;-76
2022/11/18 08:57:21;;;;;;;;;;;;;;;7.28;100;100120.3;;;;-76
2022/11/18 09:02:24;;;;;;;;;;;;;;;7.32;100;100125;;;;-77
2022/11/18 09:07:21;;;;;;;;;;;;;;;7.37;100;100127.6;;;;-75
2022/11/18 09:08:18;;;;;;;9.1;3.6;;;;;;;;;;;;;-77
2022/11/18 09:12:21;;;;;;;;;;;;;;;7.44;100;100128.6;;;;-76
2022/11/18 09:17:21;;;;;;;;;;;;;;;7.47;100;100137.4;;;;-77
2022/11/18 09:22:21;;;;;;;;;;;;;;;7.53;100;100152.8;;;;-76
2022/11/18 09:27:21;;;;;;;;;;;;;;;7.63;100;100151.2;;;;-75
2022/11/18 09:32:21;;;;;;;;;;;;;;;7.75;100;100152.5;;;;-76
2022/11/18 09:37:21;;;;;;;;;;;;;;;7.85;100;100159.2;;;;-76
2022/11/18 09:38:19;;;;;;;8;3.7;;;;;;;;;;;;;-76
2022/11/18 09:42:32;;;;;;;;;;;;;;;7.89;100;100169;;;;-77
2022/11/18 09:47:23;;;;;;;;;;;;;;;7.92;100;100176.9;;;;-75
2022/11/18 09:52:24;;;;;;;;;;;;;;;8;99.7002;100183.7;;;;-77
2022/11/18 09:57:22;;;;;;;;;;;;;;;8.07;99.79297;100193;;;;-77
2022/11/18 10:02:37;;;;;;;;;;;;;;;8.09;99.50391;100204.5;;;;-77
2022/11/18 10:07:25;;;;;;;;;;;;;;;8.15;100;100210.3;;;;-77
2022/11/18 10:08:24;;;;;;;10.4;3.8;;;;;;;;;;;;;-76
2022/11/18 10:12:25;;;;;;;;;;;;;;;8.2;100;100207;;;;-77
2022/11/18 10:17:33;;;;;;;;;;;;;;;8.34;99.9873;100213;;;;-76
2022/11/18 10:22:25;;;;;;;;;;;;;;;8.52;99.76563;100220.4;;;;-76
2022/11/18 10:27:21;;;;;;;;;;;;;;;8.64;99.43164;100230;;;;-75
2022/11/18 10:32:22;;;;;;;;;;;;;;;8.71;98.88965;100235;;;;-76
2022/11/18 10:37:29;;;;;;;;;;;;;;;8.69;98.54395;100239.1;;;;-76
2022/11/18 10:38:23;;;;;;;9.8;4.2;;;;;;;;;;;;;-75
2022/11/18 10:42:24;;;;;;;;;;;;;;;8.71;98.91113;100240.5;;;;-76
2022/11/18 10:47:25;;;;;;;;;;;;;;;8.76;99.10742;100242.1;;;;-76
2022/11/18 10:52:21;;;;;;;;;;;;;;;8.79;98.43457;100237;;;;-76
2022/11/18 10:57:22;;;;;;;;;;;;;;;8.8;98.96289;100242.1;;;;-76
2022/11/18 11:02:23;;;;;;;;;;;;;;;8.71;98.74707;100244.1;;;;-75
2022/11/18 11:07:27;;;;;;;;;;;;;;;8.7;98.97461;100248.1;;;;-77
2022/11/18 11:08:25;;;;;;;10;5.1;;;;;;;;;;;;;-75
2022/11/18 11:12:21;;;;;;;;;;;;;;;8.68;98.89258;100247.2;;;;-76
2022/11/18 11:17:22;;;;;;;;;;;;;;;8.68;97.91699;100252.3;;;;-75
2022/11/18 11:22:21;;;;;;;;;;;;;;;8.75;98.13965;100253.7;;;;-75
2022/11/18 11:27:38;;;;;;;;;;;;;;;8.81;98.01367;100254.3;;;;-75
2022/11/18 11:32:24;;;;;;;;;;;;;;;8.88;98.87207;100260.8;;;;-75
2022/11/18 11:37:25;;;;;;;;;;;;;;;8.94;98.76367;100265.6;;;;-76
2022/11/18 11:38:28;;;;;;;11.2;4.1;;;;;;;;;;;;;-76
2022/11/18 11:42:25;;;;;;;;;;;;;;;9;98.20996;100273;;;;-76
2022/11/18 11:52:30;;;;;;;;;;;;;;;9.18;98.4375;100278.8;;;;-75
2022/11/18 11:57:30;;;;;;;;;;;;;;;9.28;99.12695;100287.8;;;;-75
2022/11/18 12:02:32;;;;;;;;;;;;;;;9.26;97.71875;100291.2;;;;-75
2022/11/18 12:07:23;;;;;;;;;;;;;;;9.3;99.07813;100298.6;;;;-75
2022/11/18 12:08:24;;;;;;;9.2;4.1;;;;;;;;;;;;;-75
2022/11/18 12:12:39;;;;;;;;;;;;;;;9.28;98.25098;100301.2;;;;-75
2022/11/18 12:17:24;;;;;;;;;;;;;;;9.31;99.69434;100303.2;;;;-75
2022/11/18 12:22:21;;;;;;;;;;;;;;;9.27;98.74316;100305.8;;;;-74
2022/11/18 12:27:33;;;;;;;;;;;;;;;9.29;99.37012;100309.3;;;;-74
2022/11/18 12:32:28;;;;;;;;;;;;;;;9.28;98.81055;100313.6;;;;-75
2022/11/18 12:37:32;;;;;;;;;;;;;;;9.33;100;100318.6;;;;-75
2022/11/18 12:38:36;;;;;;;10.6;4.8;;;;;;;;;;;;;-75
2022/11/18 12:47:31;;;;;;;;;;;;;;;9.27;99.38965;100322.4;;;;-75
2022/11/18 12:52:32;;;;;;;;;;;;;;;9.29;98.61328;100324.8;;;;-75
2022/11/18 12:57:25;;;;;;;;;;;;;;;9.28;98.31543;100328.3;;;;-75
2022/11/18 13:02:26;;;;;;;;;;;;;;;9.32;99.50977;100333.1;;;;-74
2022/11/18 13:08:25;;;;;;;12.4;5.3;;;;;;;;;;;;;-75
2022/11/18 13:12:22;;;;;;;;;;;;;;;9.26;98.23438;100343.6;;;;-74
2022/11/18 13:27:27;;;;;;;;;;;;;;;9.17;99.10059;100350.5;;;;-75
2022/11/18 13:32:25;;;;;;;;;;;;;;;9.15;98.86719;100357.9;;;;-75
2022/11/18 13:37:23;;;;;;;;;;;;;;;9.15;99.49316;100357.7;;;;-76
2022/11/18 13:38:27;;;;;;;10.9;5.3;;;;;;;;;;;;;-76
2022/11/18 13:42:22;;;;;;;;;;;;;;;9.09;98.62305;100366.5;;;;-75
2022/11/18 13:47:26;;;;;;;;;;;;;;;9.11;100;100371.6;;;;-74
2022/11/18 13:52:25;;;;;;;;;;;;;;;9.06;99.3291;100372.3;;;;-76
2022/11/18 13:57:25;;;;;;;;;;;;;;;9.04;99.46582;100376.8;;;;-76
2022/11/18 14:02:22;;;;;;;;;;;;;;;9.05;100;100375.2;;;;-75
2022/11/18 14:07:31;;;;;;;;;;;;;;;9.03;99.61914;100379.3;;;;-75
2022/11/18 14:08:30;;;;;;;11.8;5.1;;;;;;;;;;;;;-76
2022/11/18 14:12:28;;;;;;;;;;;;;;;9.02;99.74609;100383.9;;;;-74
2022/11/18 14:17:23;;;;;;;;;;;;;;;8.99;99.29102;100382.6;;;;-76
2022/11/18 14:22:22;;;;;;;;;;;;;;;8.98;99.35645;100388.4;;;;-75
2022/11/18 14:27:32;;;;;;;;;;;;;;;8.96;99.66895;100392.4;;;;-74
2022/11/18 14:32:22;;;;;;;;;;;;;;;8.95;99.45801;100406;;;;-75
2022/11/18 14:37:21;;;;;;;;;;;;;;;8.94;99.59863;100408.2;;;;-75
2022/11/18 14:38:28;;;;;;;10.9;5;;;;;;;;;;;;;-75
2022/11/18 14:42:22;;;;;;;;;;;;;;;8.93;99.62891;100412.8;;;;-74
2022/11/18 14:47:23;;;;;;;;;;;;;;;8.91;100;100423.6;;;;-75
2022/11/18 14:52:21;;;;;;;;;;;;;;;8.89;100;100427.5;;;;-75
2022/11/18 14:57:23;;;;;;;;;;;;;;;8.88;100;100431;;;;-74
2022/11/18 15:02:22;;;;;;;;;;;;;;;8.87;100;100439.5;;;;-76
2022/11/18 15:07:23;;;;;;;;;;;;;;;8.85;100;100439.1;;;;-74
2022/11/18 15:08:29;;;;;;;13;6.2;;;;;;;;;;;;;-75
2022/11/18 15:12:21;;;;;;;;;;;;;;;8.82;100;100447.5;;;;-75
2022/11/18 15:17:21;;;;;;;;;;;;;;;8.8;100;100452.6;;;;-74
2022/11/18 15:22:22;;;;;;;;;;;;;;;8.79;100;100460.5;;;;-75
2022/11/18 15:27:21;;;;;;;;;;;;;;;8.76;100;100465.8;;;;-75
2022/11/18 15:32:21;;;;;;;;;;;;;;;8.74;99.93652;100469;;;;-75
2022/11/18 15:37:21;;;;;;;;;;;;;;;8.71;99.86426;100467.9;;;;-75
2022/11/18 15:38:28;;;;;;;12.3;6.6;;;;;;;;;;;;;-75
2022/11/18 15:42:21;;;;;;;;;;;;;;;8.68;99.73535;100470.5;;;;-74
2022/11/18 15:47:21;;;;;;;;;;;;;;;8.65;99.89355;100476.8;;;;-74
2022/11/18 15:52:21;;;;;;;;;;;;;;;8.62;99.86328;100485.4;;;;-74
2022/11/18 15:57:21;;;;;;;;;;;;;;;8.6;99.75195;100489.4;;;;-77
2022/11/18 16:02:21;;;;;;;;;;;;;;;8.59;99.80273;100494.3;;;;-74
2022/11/18 16:07:21;;;;;;;;;;;;;;;8.57;99.64648;100489.2;;;;-76
2022/11/18 16:08:28;;;;;;;12.7;7.2;;;;;;;;;;;;;-74
2022/11/18 16:17:21;;;;;;;;;;;;;;;8.54;99.71484;100503.2;;;;-74
2022/11/18 16:22:21;;;;;;;;;;;;;;;8.52;99.66699;100506.8;;;;-75
2022/11/18 16:27:21;;;;;;;;;;;;;;;8.51;99.6875;100515.4;;;;-75
2022/11/18 16:32:21;;;;;;;;;;;;;;;8.5;99.69434;100514.6;;;;-74
2022/11/18 16:37:21;;;;;;;;;;;;;;;8.49;99.66992;100524.8;;;;-75
2022/11/18 16:38:28;;;;;;;14;6.9;;;;;;;;;;;;;-75
2022/11/18 16:42:21;;;;;;;;;;;;;;;8.47;99.61328;100530.2;;;;-74
2022/11/18 16:47:21;;;;;;;;;;;;;;;8.48;99.6377;100536.4;;;;-73
2022/11/18 16:52:21;;;;;;;;;;;;;;;8.47;99.59766;100543.4;;;;-74
2022/11/18 16:57:21;;;;;;;;;;;;;;;8.47;99.63281;100552.3;;;;-73
2022/11/18 17:02:22;;;;;;;;;;;;;;;8.47;99.58691;100558.5;;;;-75
2022/11/18 17:07:21;;;;;;;;;;;;;;;8.46;99.58691;100563;;;;-74
2022/11/18 17:08:29;;;;;;;13;7.3;;;;;;;;;;;;;-75
2022/11/18 17:12:21;;;;;;;;;;;;;;;8.45;99.63965;100570.2;;;;-74
2022/11/18 17:17:26;;;;;;;;;;;;;;;8.45;99.72754;100576.7;;;;-74
2022/11/18 17:22:21;;;;;;;;;;;;;;;8.45;99.7168;100582.4;;;;-75
2022/11/18 17:27:21;;;;;;;;;;;;;;;8.44;100;100593.9;;;;-75
2022/11/18 17:32:21;;;;;;;;;;;;;;;8.38;100;100599.9;;;;-77
2022/11/18 17:37:21;;;;;;;;;;;;;;;8.33;100;100605.3;;;;-75
2022/11/18 17:38:29;;;;;;;14.5;6.7;;;;;;;;;;;;;-75
2022/11/18 17:42:24;;;;;;;;;;;;;;;8.3;100;100605.7;;;;-75
2022/11/18 17:47:21;;;;;;;;;;;;;;;8.26;100;100609;;;;-74
2022/11/18 17:52:21;;;;;;;;;;;;;;;8.2;100;100617;;;;-74
2022/11/18 17:57:21;;;;;;;;;;;;;;;8.15;100;100627.7;;;;-74
2022/11/18 18:02:21;;;;;;;;;;;;;;;8.13;100;100637.1;;;;-76
2022/11/18 18:07:21;;;;;;;;;;;;;;;8.04;100;100653.6;;;;-75
2022/11/18 18:08:30;;;;;;;15.2;6.9;;;;;;;;;;;;;-74
2022/11/18 18:17:21;;;;;;;;;;;;;;;7.92;100;100659.3;;;;-74
2022/11/18 18:22:21;;;;;;;;;;;;;;;7.84;100;100663.5;;;;-74
2022/11/18 18:27:21;;;;;;;;;;;;;;;7.8;100;100674;;;;-74
2022/11/18 18:32:21;;;;;;;;;;;;;;;7.75;100;100672.5;;;;-74
2022/11/18 18:37:21;;;;;;;;;;;;;;;7.71;100;100684.4;;;;-74
2022/11/18 18:38:34;;;;;;;14.5;6.8;;;;;;;;;;;;;-74
2022/11/18 18:42:21;;;;;;;;;;;;;;;7.66;99.97266;100692.6;;;;-76
2022/11/18 18:47:21;;;;;;;;;;;;;;;7.6;99.98242;100691.8;;;;-74
2022/11/18 18:52:21;;;;;;;;;;;;;;;7.59;99.98047;100700.2;;;;-76
2022/11/18 18:57:21;;;;;;;;;;;;;;;7.52;99.87598;100711.5;;;;-76
2022/11/18 19:02:21;;;;;;;;;;;;;;;7.47;99.97461;100712.7;;;;-76
2022/11/18 19:07:21;;;;;;;;;;;;;;;7.42;99.98438;100716.7;;;;-76
2022/11/18 19:08:31;;;;;;;13.6;6.9;;;;;;;;;;;;;-76
2022/11/18 19:17:21;;;;;;;;;;;;;;;7.35;99.91211;100717.7;;;;-76
2022/11/18 19:22:21;;;;;;;;;;;;;;;7.28;99.93945;100734.8;;;;-75
2022/11/18 19:27:21;;;;;;;;;;;;;;;7.2;99.92285;100740.8;;;;-74
2022/11/18 19:32:21;;;;;;;;;;;;;;;7.17;99.91406;100740.4;;;;-75
2022/11/18 19:37:21;;;;;;;;;;;;;;;7.11;99.8584;100744.4;;;;-75
2022/11/18 19:38:33;;;;;;;16.9;6.9;;;;;;;;;;;;;-75
2022/11/18 19:42:21;;;;;;;;;;;;;;;7.08;99.82813;100749.3;;;;-76
2022/11/18 19:47:24;;;;;;;;;;;;;;;7.02;99.70703;100761.1;;;;-76
2022/11/18 19:52:21;;;;;;;;;;;;;;;6.96;99.70313;100771.8;;;;-76
2022/11/18 19:57:21;;;;;;;;;;;;;;;6.9;99.70996;100780.2;;;;-76
2022/11/18 20:02:21;;;;;;;;;;;;;;;6.88;99.60742;100793.1;;;;-77
2022/11/18 20:07:21;;;;;;;;;;;;;;;6.81;99.55859;100804.1;;;;-76
2022/11/18 20:08:34;;;;;;;13.3;6.1;;;;;;;;;;;;;-76
2022/11/18 20:12:21;;;;;;;;;;;;;;;6.78;99.4541;100809.1;;;;-76
2022/11/18 20:17:22;;;;;;;;;;;;;;;6.73;99.34766;100816.5;;;;-75
2022/11/18 20:22:22;;;;;;;;;;;;;;;6.68;99.33496;100820.5;;;;-74
2022/11/18 20:27:23;;;;;;;;;;;;;;;6.62;99.34277;100825;;;;-75
2022/11/18 20:32:21;;;;;;;;;;;;;;;6.51;99.14258;100828.4;;;;-75
2022/11/18 20:37:21;;;;;;;;;;;;;;;6.41;99.16406;100842.9;;;;-75
2022/11/18 20:38:32;;;;;;;15.5;6.2;;;;;;;;;;;;;-76
2022/11/18 20:47:21;;;;;;;;;;;;;;;6.26;99.07422;100845.5;;;;-76
2022/11/18 20:52:22;;;;;;;;;;;;;;;6.22;99;100851.6;;;;-76
2022/11/18 20:57:21;;;;;;;;;;;;;;;6.16;98.91016;100846.4;;;;-75
2022/11/18 21:02:23;;;;;;;;;;;;;;;6.11;98.92969;100851.5;;;;-75
2022/11/18 21:07:21;;;;;;;;;;;;;;;6.08;98.87988;100863;;;;-77
2022/11/18 21:08:33;;;;;;;12.7;5.5;;;;;;;;;;;;;-75
2022/11/18 21:12:21;;;;;;;;;;;;;;;6;98.89648;100869.3;;;;-75
2022/11/18 21:17:21;;;;;;;;;;;;;;;5.96;98.68066;100878.3;;;;-76
2022/11/18 21:22:21;;;;;;;;;;;;;;;5.92;98.73633;100884;;;;-75
2022/11/18 21:27:21;;;;;;;;;;;;;;;5.92;98.61621;100892.5;;;;-75
2022/11/18 21:32:21;;;;;;;;;;;;;;;5.83;98.55176;100892.2;;;;-76
2022/11/18 21:37:21;;;;;;;;;;;;;;;5.78;98.55078;100899.3;;;;-75
2022/11/18 21:38:33;;;;;;;12.3;5.6;;;;;;;;;;;;;-76
2022/11/18 21:42:21;;;;;;;;;;;;;;;5.74;98.59863;100903.3;;;;-74
2022/11/18 21:47:21;;;;;;;;;;;;;;;5.67;98.41699;100904.6;;;;-75
2022/11/18 21:52:21;;;;;;;;;;;;;;;5.66;98.44727;100908.1;;;;-75
2022/11/18 21:57:25;;;;;;;;;;;;;;;5.57;98.27441;100916.4;;;;-76
2022/11/18 22:02:23;;;;;;;;;;;;;;;5.47;98.13477;100921.3;;;;-76
2022/11/18 22:07:39;;;;;;;;;;;;;;;5.47;98.15625;100936.4;;;;-76
2022/11/18 22:08:45;;;;;;;15.3;6.4;;;;;;;;;;;;;-76
2022/11/18 22:12:22;;;;;;;;;;;;;;;5.4;98.04199;100940.5;;;;-75
2022/11/18 22:17:22;;;;;;;;;;;;;;;5.38;97.9502;100936.6;;;;-76
2022/11/18 22:22:21;;;;;;;;;;;;;;;5.34;97.93164;100946.1;;;;-75
2022/11/18 22:27:21;;;;;;;;;;;;;;;5.27;97.88281;100948.7;;;;-76
2022/11/18 22:32:21;;;;;;;;;;;;;;;5.25;97.74609;100946.8;;;;-74
2022/11/18 22:37:21;;;;;;;;;;;;;;;5.21;97.79395;100948.5;;;;-76
2022/11/18 22:38:33;;;;;;;15;7.1;;;;;;;;;;;;;-74
2022/11/18 22:47:21;;;;;;;;;;;;;;;5.08;97.60059;100953.2;;;;-75
2022/11/18 22:52:21;;;;;;;;;;;;;;;5.12;97.51074;100953.6;;;;-76
2022/11/18 22:57:21;;;;;;;;;;;;;;;5.04;97.4375;100962.5;;;;-75
2022/11/18 23:02:21;;;;;;;;;;;;;;;5.02;97.32715;100971.4;;;;-76
2022/11/18 23:07:21;;;;;;;;;;;;;;;5.02;97.30371;100982.9;;;;-75
2022/11/18 23:08:34;;;;;;;16.7;7.4;;;;;;;;;;;;;-74
2022/11/18 23:17:21;;;;;;;;;;;;;;;4.9;97.27637;100981.1;;;;-76
2022/11/18 23:22:21;;;;;;;;;;;;;;;4.87;97.22754;100988.2;;;;-76
2022/11/18 23:27:21;;;;;;;;;;;;;;;4.85;97.1582;100992.3;;;;-75
2022/11/18 23:32:21;;;;;;;;;;;;;;;4.84;97.25195;101004.4;;;;-76
2022/11/18 23:37:21;;;;;;;;;;;;;;;4.81;97.2998;101016.5;;;;-76
2022/11/18 23:38:34;;;;;;;15.8;7.5;;;;;;;;;;;;;-75
2022/11/18 23:42:21;;;;;;;;;;;;;;;4.79;97.03711;101019.3;;;;-75
2022/11/18 23:47:21;;;;;;;;;;;;;;;4.73;97.15137;101017.1;;;;-75
2022/11/18 23:52:21;;;;;;;;;;;;;;;4.73;97.08594;101023.2;;;;-76
2022/11/18 23:57:21;;;;;;;;;;;;;;;4.69;96.95801;101026.9;;;;-75
